Архив погоды в Ахты

Метеограмма Ахты
Вторник, 27 Июня
Время местн. Темп Ветер Видим Явления Облачность нижн/средн/верх Атм. давл. Влжн Точка росы ВНГО R Сост. почвы Tg s
Напр Скр Прв ур.ст ур.м изм
03:00 +12.6° З 1 - 10 км - ясно 678 639 -0.9 93% +11.5° более 2.5 км - - - -
00:00 +14.5° Ю,Ю-З 1 - 10 км - ясно 678 640 -0.6 93% +13.3° более 2.5 км - - - -
Понедельник, 26 Июня
Время местн. Темп Ветер Видим Явления Облачность нижн/средн/верх Атм. давл. Влжн Точка росы ВНГО R Сост. почвы Tg s
Напр Скр Прв ур.ст ур.м изм
21:00 +14.9° З 1 - 10 км - ясно 679 641 -0.1 91% +13.4° более 2.5 км - - - -
18:00 +17° В 2 - 10 км - облачно 679 641 +0.5 85% +14.5° 1 км - - - -
15:00 +19.7° В 5 - 50 км - облачно с прояснениями 679 641 +0.2 77% +15.6° - - - - -
12:00 +21.4° В 4 - более 50 км - переменная облачность 678 641 -0.5 61% +13.5° более 2.5 км - - - -
09:00 +22.3° В 2 - 50 км - переменная облачность 679 642 +0.4 61% +14.4° - - - - -
06:00 +13.3° З 1 - 50 км - переменная облачность 680 641 +0.4 94% +12.4° - - Сухая (без трещин) - -
03:00 +12.9° З 1 - 10 км - ясно 679 641 +0.3 93% +11.8° более 2.5 км - - - -
00:00 +14.4° штиль 0 - 10 км - облачно с прояснениями 679 641 +0.8 90% +12.8° 1 км - - - -
Воскресенье, 25 Июня
Время местн. Темп Ветер Видим Явления Облачность нижн/средн/верх Атм. давл. Влжн Точка росы ВНГО R Сост. почвы Tg s
Напр Скр Прв ур.ст ур.м изм
21:00 +15.8° С-З 1 - 10 км - ясно 678 641 +1.5 85% +13.3° более 2.5 км - - - -
18:00 +18.6° В 2 10 10 км - облачно 677 639 +1.9 75% +14° 1 км 0 - - -
15:00 +24.1° В 3 - 50 км - переменная облачность 675 638 +0.2 59% +15.6° 1.5 км - - - -
12:00 +25.9° В 2 - 50 км - ясно 675 638 -0.4 47% +13.7° более 2.5 км - - - -
09:00 +23.4° В,С-В 1 - более 50 км - ясно 675 638 -0.6 42% +9.9° более 2.5 км - - - -
06:00 +16° З 2 - 50 км - ясно 676 638 +0.2 59% +8° более 2.5 км - Сухая (без трещин) - -
03:00 - +14° З 1 - - - - 675 638 +0.2 76% +9.8° - - - - -
00:00 - +14.9° З 1 - - - - 675 638 0 91% +13.5° - - - - -
Суббота, 24 Июня
Время местн. Темп Ветер Видим Явления Облачность нижн/средн/верх Атм. давл. Влжн Точка росы ВНГО R Сост. почвы Tg s
Напр Скр Прв ур.ст ур.м изм
21:00 +17° штиль 0 - 10 км - ясно 675 638 +1.4 85% +14.5° более 2.5 км - - - -
18:00 +21.6° В 3 - 50 км - ясно 674 637 +0.4 68% +15.4° более 2.5 км - - - -
15:00 +23.8° В 4 - более 50 км - ясно 673 637 -0.8 61% +15.9° более 2.5 км - - - -
12:00 +22.9° В 4 - 50 км - ясно 674 638 -0.8 61% +15° более 2.5 км - - - -
09:00 +23.1° В 1 - 50 км - ясно 675 638 -1.7 53% +13° более 2.5 км - - - -
06:00 +12.3° З,С-З 1 - более 50 км - ясно 677 639 -0.2 95% +11.5° более 2.5 км 0.8 Влажная (без луж) +9° -
03:00 +11.4° З,С-З 1 - 10 км - ясно 677 639 -0.3 94% +10.5° более 2.5 км - - - -
00:00 +12.6° штиль 0 - 10 км облака рассеиваются {дождь} преимущественно облачно 677 639 -0.6 92% +11.4° 1 км - - - -